Aktualne dane pomiarowe

Uwaga, wersja testowa! Automatyczne pobieranie danych za pomocą narzędzi lub skryptów to umożliwiających jest zabronione.

Dane meteo z obszaru Polski uzyskane na podstawie depesz SYNOP pobieranych co godzinę z NWS. Najedź myszką na symbol przedstawiony w tabeli, aby uzyskać informacje co do jego znaczenia. Prosimy pamiętać, że to testowa wersja strony, która jeszcze nie jest ukończona. Stworzono również jest krótki FAQ dotyczący korzystania z tej podstrony Anomalie temperatury w chwili obecnej odniesione są do okresu referencyjnego 1951-2016. Okres ten będzie później zmieniony na 1981-2010. Kliknij ikonę aby pobrać plik CSV. Kliknij ikonę aby wygenerować mapę synoptyczną dla danego terminu.

Wybierz Datę:    

        

Jelenia Góra (12500)

Dane terminowe dla wybranej stacji. Kliknij datę, aby otrzymać dane z tego terminu dla wszystkich stacji.

TemperaturaZachmurzenieWiatrCiśnienieOpadyPogoda
 Data t td wb tx tn tg rh  Nt Nl Cl Cm Ch ws wd g1 g2 wx mslp ppp ch 24h 12h t ww ww w1 w2  
2019-07-04 23:00:00 8.8 5.5 6.8--- 8050.0wx-wxwx1wx---1019.5 977.9 -0.6---wx---
2019-07-04 22:00:00 10.1 5.7 7.5--- 7450.0wxwxwxwxwx1wx--11019.6 978.2 -0.3---wx---
2019-07-04 21:00:00 11.1 5.2 7.7--- 6750.0wx-wxwx0---01019.7 978.4 -0.3---wx---
2019-07-04 20:00:00 13.1 6.9 9.4--- 6635.0wx-wxwx1wx--11019.5 978.5 -0.4---------
2019-07-04 19:00:00 15.7 4.7 9.8--- 4850.0wx-wxwx0---01019.1 978.5 -1.1---------
2019-07-04 18:00:00 20.0 2.8 11.1 21.8 10.7- 3250.0wx-wx2wx-1021018.7 978.7 -1.2- 0.012------
2019-07-04 17:00:00 20.8 2.6 11.4--- 3040.0wx-wx4wx--41018.8 978.9 -1.6---------
2019-07-04 16:00:00 21.6 2.8 11.9--- 2940.0wx-wx3wx---1019.4 979.6 -1.2---------
2019-07-04 15:00:00 21.4 2.6 11.7--- 2935.0wx-wx4wx-1041019.8 979.9 -1.6---------
2019-07-04 14:00:00 21.2 2.0 11.4--- 2840.0wxwxwxwx5wx-1051020.4 980.5 -1.6---------
2019-07-04 13:00:00 20.5 2.3 11.2--- 3030.0wxwxwxwx5wx101051020.8 980.8 -1.7---------
2019-07-04 12:00:00 19.7 3.0 11.1--- 3340.0wxwxwxwx5wx101051021.7 981.5 -1.3- 0.06------
2019-07-04 11:00:00 19.1 4.4 11.3--- 3840.0wxwxwx4wx-1041022.4 982.1 -0.8---------
2019-07-04 10:00:00 18.2 4.4 10.9--- 4040.0wxwxwx5wx--51022.9 982.5 -0.5---------
2019-07-04 09:00:00 17.3 5.9 11.0--- 4730.0wxwxwx3wx--31023.4 982.8 -0.1---------
2019-07-04 08:00:00 15.8 5.7 10.2--- 5140.0wxwxwx4wx--41023.7 982.9 0.3---------
2019-07-04 07:00:00 14.7 6.0 9.8--- 5630.0wxwxwx3wx---1023.9 983.0 0.5---------
2019-07-04 06:00:00 10.7 5.9 7.8 18.1 4.0 2 7240.0wxwxwx0---01024.4 982.9 0.5- 0.012----- 14.5
2019-07-04 05:00:00 8.2 5.7 6.6--- 8440.0wxwxwx1wx--11024.5 982.6 0.2---------
2019-07-04 04:00:00 4.6 4.0 4.1--- 9640.0wx-1wx--11024.9 982.5 0.0---------
2019-07-04 03:00:00 4.1 2.9 3.3--- 9245.0wx-1wx--11024.9 982.4 0.1---------
2019-07-04 02:00:00 4.5 3.3 3.7--- 9250.0wx-1wx--11024.8 982.4 0.2---------
2019-07-04 01:00:00 5.0 3.8 4.2--- 9235.0wx-1wx--11024.9 982.5 0.3---------
2019-07-04 00:00:00 6.1 4.4 5.0--- 8950.0wx-1wx--11024.5 982.3 0.3- 0.06------
2019-07-03 23:00:00 6.9 4.6 5.4--- 8550.0wx-1wx--11024.3 982.2 0.5---------
2019-07-03 22:00:00 8.0 5.1 6.2--- 8250.0wx-1wx--11024.1 982.2 1.0---------
2019-07-03 21:00:00 9.2 4.8 6.6--- 7450.0wx-1wx--11023.7 982.0 1.1---------
2019-07-03 20:00:00 11.9 4.8 7.9--- 6250.0wx-0---01023.0 981.7 0.7---------
2019-07-03 19:00:00 15.8 3.2 9.2--- 4350.0wx-wx1wx--11021.9 981.2 0.4---------
2019-07-03 18:00:00 18.1 3.2 10.4 20.4 12.9- 3750.0wxwxwxwx3wx-1031021.3 980.9 0.1- 0.012------
2019-07-03 17:00:00 18.6 2.8 10.5--- 3550.0wxwxwx4wx--41021.3 981.0 0.0---------
2019-07-03 16:00:00 19.1 2.4 10.6--- 3350.0wxwxwx4wx-941021.0 980.8 -0.3---------
2019-07-03 15:00:00 20.2 2.5 11.1--- 3135.0wxwxwx4wx-1041020.9 980.8 -0.6---------
2019-07-03 14:00:00 19.5 2.4 10.8--- 3235.0wxwxwx4wx91041021.2 981.0 -0.6---------
2019-07-03 13:00:00 19.9 2.3 10.9--- 3150.0wxwxwx5wx-1051021.2 981.1 -0.5---------
2019-07-03 12:00:00 18.7 2.5 10.4--- 3435.0wxwxwx5wx---1021.7 981.4 -0.4---------
2019-07-03 11:00:00 18.2 2.9 10.3--- 3635.0wxwxwx6wx111161022.0 981.6 -0.3---------
2019-07-03 10:00:00 17.1 3.4 10.0--- 4035.0wxwxwx4wx-1141022.1 981.6 -0.2---------
2019-07-03 09:00:00 16.4 3.1 9.5--- 4135.0wxwxwxwx5wx---1022.4 981.8 0.1---------
2019-07-03 08:00:00 15.4 5.0 9.7--- 5035.0wxwxwxwx4wx-1041022.7 981.9 0.4---------
2019-07-03 07:00:00 14.2 5.8 9.5--- 5735.0wxwxwxwx3wx--31022.8 981.8 0.7---------
2019-07-03 06:00:00 12.9 5.8 8.8 20.1 4.8 2 6235.0wxwxwxwx3wx--31022.8 981.7 1.0- 0.012----- 13.4
2019-07-03 05:00:00 9.8 7.4 8.2--- 8550.0wxwxwx0---01023.1 981.5 0.9---------
2019-07-03 04:00:00 6.4 5.3 5.6--- 9340.0wxwxwxwx0---01023.2 981.1 0.4---------
2019-07-03 03:00:00 4.9 4.2 4.4--- 9540.0wx-wx1wx--11023.0 980.7 -0.2---wx---
2019-07-03 02:00:00 6.8 5.1 5.7--- 8950.0wx-wx0---01022.6 980.6 -0.1---------
2019-07-03 01:00:00 7.6 6.8 7.0--- 9530.0wx-0---01022.6 980.7 0.5---------
2019-07-03 00:00:00 8.0 6.5 7.0--- 9030.0wx-1wx--11022.7 980.9 1.1- 0.06------
1.3 ms

 

Print Friendly, PDF & Email